Time;durP1;ratioP1;P1;durP2;ratioP2;P2;SDS_P1;SDS_P2;PMS_P1;PMS_P2;Temp;Humidity;BMP_temperature;BMP_pressure;BME280_temperature;BME280_humidity;BME280_pressure;Samples;Min_cycle;Max_cycle;Signal;HPM_P1;HPM_P2
2023/10/25 00:01:47;;;;;;;45.65;23.50;;;;;;;;;;5053654;28;20282;-39
2023/10/25 00:04:12;;;;;;;39.80;20.75;;;;;;;;;;5059739;28;20025;-39
2023/10/25 00:06:37;;;;;;;43.00;20.83;;;;;;;;;;5062157;28;20028;-39
2023/10/25 00:09:03;;;;;;;24.30;13.53;;;;;;;;;;5057122;28;20279;-39
2023/10/25 00:11:28;;;;;;;34.37;19.27;;;;;;;;;;5065406;28;20972;-39
2023/10/25 00:13:53;;;;;;;39.23;20.33;;;;;;;;;;5063294;28;20266;-39
2023/10/25 00:16:18;;;;;;;36.30;19.80;;;;;;;;;;5062562;28;20271;-39
2023/10/25 00:18:44;;;;;;;41.53;22.07;;;;;;;;;;5060692;28;20322;-39
2023/10/25 00:21:09;;;;;;;31.20;19.87;;;;;;;;;;5055684;28;20290;-39
2023/10/25 00:23:34;;;;;;;35.27;20.47;;;;;;;;;;5059771;28;20419;-39
2023/10/25 00:25:59;;;;;;;37.90;19.00;;;;;;;;;;5055047;28;20286;-39
2023/10/25 00:28:25;;;;;;;41.05;20.08;;;;;;;;;;5063228;28;20899;-39
2023/10/25 00:30:50;;;;;;;38.23;21.27;;;;;;;;;;5061325;28;20043;-39
2023/10/25 00:33:16;;;;;;;40.15;20.73;;;;;;;;;;5055541;28;20760;-39
2023/10/25 00:35:41;;;;;;;36.10;19.97;;;;;;;;;;5053917;28;20103;-39
2023/10/25 00:38:06;;;;;;;36.05;20.10;;;;;;;;;;5055676;28;20278;-39
2023/10/25 00:40:32;;;;;;;39.17;20.52;;;;;;;;;;5052423;28;20043;-37
2023/10/25 00:42:58;;;;;;;46.80;22.13;;;;;;;;;;5065863;28;20056;-37
2023/10/25 00:45:23;;;;;;;43.33;21.67;;;;;;;;;;5064822;28;20028;-38
2023/10/25 00:47:48;;;;;;;31.57;15.03;;;;;;;;;;5064032;28;20103;-38
2023/10/25 00:50:17;;;;;;;40.03;20.87;;;;;;;;;;5065001;28;20013;-38
2023/10/25 00:52:43;;;;;;;43.50;22.23;;;;;;;;;;5062041;28;20354;-38
2023/10/25 00:55:08;;;;;;;43.10;23.48;;;;;;;;;;5053230;28;20032;-38
2023/10/25 00:57:33;;;;;;;46.80;22.00;;;;;;;;;;5058151;28;20706;-38
2023/10/25 01:00:00;;;;;;;46.28;22.35;;;;;;;;;;5057531;28;20085;-38
2023/10/25 01:02:25;;;;;;;40.03;21.33;;;;;;;;;;5062797;28;20022;-38
2023/10/25 01:04:51;;;;;;;42.42;21.23;;;;;;;;;;5061077;28;20028;-37
2023/10/25 01:07:16;;;;;;;41.60;21.27;;;;;;;;;;5061680;28;20135;-38
2023/10/25 01:09:41;;;;;;;38.13;20.75;;;;;;;;;;5052755;28;20062;-38
2023/10/25 01:12:07;;;;;;;35.40;18.67;;;;;;;;;;5061130;28;20028;-39
2023/10/25 01:14:32;;;;;;;33.47;17.02;;;;;;;;;;5061604;28;20024;-39
2023/10/25 01:16:57;;;;;;;35.08;18.80;;;;;;;;;;5058799;28;20044;-39
2023/10/25 01:19:23;;;;;;;31.27;18.33;;;;;;;;;;5059580;28;20040;-39
2023/10/25 01:21:48;;;;;;;32.08;18.38;;;;;;;;;;5063027;28;20753;-39
2023/10/25 01:24:13;;;;;;;26.05;11.60;;;;;;;;;;5053758;28;20032;-40
2023/10/25 01:26:38;;;;;;;28.80;15.53;;;;;;;;;;5061980;28;20065;-39
2023/10/25 01:29:04;;;;;;;32.13;15.45;;;;;;;;;;5060430;28;20286;-39
2023/10/25 01:31:30;;;;;;;29.35;15.07;;;;;;;;;;5059236;28;20447;-39
2023/10/25 01:33:55;;;;;;;29.88;15.60;;;;;;;;;;5053769;28;20507;-39
2023/10/25 01:36:20;;;;;;;22.40;12.70;;;;;;;;;;5061726;28;20025;-39
2023/10/25 01:38:45;;;;;;;29.73;12.77;;;;;;;;;;5060002;28;20279;-39
2023/10/25 01:41:15;;;;;;;23.47;11.67;;;;;;;;;;5051483;28;20761;-39
2023/10/25 01:43:41;;;;;;;18.83;10.60;;;;;;;;;;5056901;28;20354;-39
2023/10/25 01:46:06;;;;;;;19.45;11.20;;;;;;;;;;5056782;28;20099;-39
2023/10/25 01:48:32;;;;;;;19.40;10.00;;;;;;;;;;5055595;28;20077;-39
2023/10/25 01:50:57;;;;;;;14.17;8.40;;;;;;;;;;5061981;28;20291;-39
2023/10/25 01:53:22;;;;;;;14.82;8.00;;;;;;;;;;5055359;28;20468;-39
2023/10/25 01:55:50;;;;;;;15.63;8.23;;;;;;;;;;5065176;28;20521;-39
2023/10/25 01:58:16;;;;;;;12.95;7.82;;;;;;;;;;5053078;28;20279;-39
2023/10/25 02:00:41;;;;;;;14.93;7.82;;;;;;;;;;5053639;28;20040;-39
2023/10/25 02:03:06;;;;;;;12.10;7.60;;;;;;;;;;5059101;28;20017;-39
2023/10/25 02:05:31;;;;;;;12.83;6.97;;;;;;;;;;5060525;28;20282;-39
2023/10/25 02:07:57;;;;;;;11.90;6.93;;;;;;;;;;5059042;28;20305;-39
2023/10/25 02:10:22;;;;;;;10.53;6.97;;;;;;;;;;5053530;28;20298;-40
2023/10/25 02:12:47;;;;;;;9.90;6.57;;;;;;;;;;5061316;28;20290;-39
2023/10/25 02:15:12;;;;;;;10.53;6.77;;;;;;;;;;5063269;28;20032;-39
2023/10/25 02:17:38;;;;;;;11.33;6.67;;;;;;;;;;5063234;28;20475;-39
2023/10/25 02:20:03;;;;;;;10.73;6.22;;;;;;;;;;5065597;28;20282;-39
2023/10/25 02:22:28;;;;;;;8.90;6.63;;;;;;;;;;5063016;28;20037;-39
2023/10/25 02:24:54;;;;;;;10.80;5.90;;;;;;;;;;5065471;28;20089;-39
2023/10/25 02:27:19;;;;;;;9.25;5.60;;;;;;;;;;5068675;28;20297;-39
2023/10/25 02:29:44;;;;;;;9.32;5.47;;;;;;;;;;5057008;28;20678;-39
2023/10/25 02:32:10;;;;;;;9.17;6.33;;;;;;;;;;5060883;28;20631;-39
2023/10/25 02:34:36;;;;;;;9.75;6.15;;;;;;;;;;5061511;28;20263;-39
2023/10/25 02:37:02;;;;;;;9.55;5.85;;;;;;;;;;5062227;28;20029;-39
2023/10/25 02:39:27;;;;;;;10.52;6.03;;;;;;;;;;5064653;28;20091;-39
2023/10/25 02:41:52;;;;;;;8.33;5.57;;;;;;;;;;5064932;28;20055;-39
2023/10/25 02:44:18;;;;;;;7.85;5.90;;;;;;;;;;5061719;28;20661;-39
2023/10/25 02:46:43;;;;;;;10.65;6.75;;;;;;;;;;5063414;28;20503;-39
2023/10/25 02:49:08;;;;;;;7.70;5.20;;;;;;;;;;5061530;28;20036;-39
2023/10/25 02:51:34;;;;;;;9.97;6.07;;;;;;;;;;5062081;28;20336;-39
2023/10/25 02:53:59;;;;;;;9.48;6.13;;;;;;;;;;5061264;28;20303;-39
2023/10/25 02:56:24;;;;;;;10.10;6.80;;;;;;;;;;5062297;28;20025;-39
2023/10/25 02:58:50;;;;;;;8.25;5.55;;;;;;;;;;5062385;28;20275;-39
2023/10/25 03:01:20;;;;;;;9.95;6.40;;;;;;;;;;5063371;28;20107;-39
2023/10/25 03:03:45;;;;;;;9.07;6.70;;;;;;;;;;5055762;28;20024;-39
2023/10/25 03:06:11;;;;;;;9.97;6.60;;;;;;;;;;5059621;28;21337;-39
2023/10/25 03:08:36;;;;;;;9.27;6.30;;;;;;;;;;5057126;28;20365;-39
2023/10/25 03:11:01;;;;;;;10.47;7.37;;;;;;;;;;5061455;28;20319;-39
2023/10/25 03:13:26;;;;;;;13.27;8.25;;;;;;;;;;5061603;28;20278;-39
2023/10/25 03:15:52;;;;;;;8.70;6.60;;;;;;;;;;5057404;28;20017;-39
2023/10/25 03:18:17;;;;;;;8.00;5.73;;;;;;;;;;5059715;28;20563;-36
2023/10/25 03:20:42;;;;;;;11.52;6.85;;;;;;;;;;5064057;28;20370;-37
2023/10/25 03:23:07;;;;;;;9.30;6.47;;;;;;;;;;5066887;28;20108;-37
2023/10/25 03:25:33;;;;;;;10.00;6.97;;;;;;;;;;5065126;28;20761;-39
2023/10/25 03:27:58;;;;;;;9.70;6.15;;;;;;;;;;5060375;28;20356;-39
2023/10/25 03:30:23;;;;;;;11.77;7.00;;;;;;;;;;5062669;28;20035;-39
2023/10/25 03:32:49;;;;;;;11.13;5.90;;;;;;;;;;5053815;28;20672;-39
2023/10/25 03:35:14;;;;;;;10.27;6.28;;;;;;;;;;5058894;28;20279;-39
2023/10/25 03:37:40;;;;;;;10.30;7.07;;;;;;;;;;5065819;28;20471;-39
2023/10/25 03:40:07;;;;;;;11.60;7.60;;;;;;;;;;5063453;28;20021;-39
2023/10/25 03:42:32;;;;;;;8.45;5.88;;;;;;;;;;5062441;28;20074;-39
2023/10/25 03:44:57;;;;;;;8.80;5.83;;;;;;;;;;5060876;28;20025;-39
2023/10/25 03:47:22;;;;;;;8.73;6.07;;;;;;;;;;5063070;28;20291;-39
2023/10/25 03:49:51;;;;;;;13.43;6.93;;;;;;;;;;5058167;28;20660;-39
2023/10/25 03:52:17;;;;;;;10.38;6.40;;;;;;;;;;5058147;28;20275;-39
2023/10/25 03:54:42;;;;;;;11.60;6.00;;;;;;;;;;5064552;28;20051;-39
2023/10/25 03:57:07;;;;;;;8.47;6.07;;;;;;;;;;5065246;28;20267;-39
2023/10/25 03:59:32;;;;;;;8.00;5.97;;;;;;;;;;5059514;28;20332;-39
2023/10/25 04:01:57;;;;;;;9.47;6.07;;;;;;;;;;5065517;28;20279;-39
2023/10/25 04:04:23;;;;;;;9.27;5.97;;;;;;;;;;5062673;28;20311;-39
2023/10/25 04:06:48;;;;;;;9.70;5.97;;;;;;;;;;5064493;28;20275;-39
2023/10/25 04:09:13;;;;;;;8.10;5.93;;;;;;;;;;5056887;28;20835;-39
2023/10/25 04:11:38;;;;;;;10.93;6.20;;;;;;;;;;5065556;28;20028;-39
2023/10/25 04:14:04;;;;;;;10.17;5.83;;;;;;;;;;5059786;28;20270;-39
2023/10/25 04:16:29;;;;;;;8.20;6.30;;;;;;;;;;5063675;28;20377;-39
2023/10/25 04:18:54;;;;;;;10.03;6.50;;;;;;;;;;5058747;28;20278;-39
2023/10/25 04:21:19;;;;;;;11.00;6.63;;;;;;;;;;5054267;28;21181;-40
2023/10/25 04:23:45;;;;;;;11.10;6.87;;;;;;;;;;5059577;28;20279;-39
2023/10/25 04:26:11;;;;;;;9.40;6.10;;;;;;;;;;5062423;28;20279;-39
2023/10/25 04:28:37;;;;;;;10.98;7.00;;;;;;;;;;5061412;28;20021;-39
2023/10/25 04:31:02;;;;;;;12.73;7.03;;;;;;;;;;5063973;28;20509;-39
2023/10/25 04:33:27;;;;;;;12.77;6.97;;;;;;;;;;5064716;28;20103;-39
2023/10/25 04:35:53;;;;;;;12.00;7.55;;;;;;;;;;5060730;28;20267;-39
2023/10/25 04:38:18;;;;;;;11.60;7.47;;;;;;;;;;5059542;28;20020;-39
2023/10/25 04:40:44;;;;;;;11.68;7.18;;;;;;;;;;5063848;28;20028;-39
2023/10/25 04:43:09;;;;;;;12.03;7.57;;;;;;;;;;5066171;28;20024;-39
2023/10/25 04:45:34;;;;;;;12.50;8.53;;;;;;;;;;5063090;28;20358;-39
2023/10/25 04:48:00;;;;;;;7.88;4.55;;;;;;;;;;5063147;28;20348;-39
2023/10/25 04:50:25;;;;;;;12.98;6.90;;;;;;;;;;5061868;28;20063;-39
2023/10/25 04:52:50;;;;;;;12.00;8.18;;;;;;;;;;5064953;28;20043;-39
2023/10/25 04:55:16;;;;;;;13.10;8.33;;;;;;;;;;5062026;28;20123;-39
2023/10/25 04:57:41;;;;;;;11.10;7.43;;;;;;;;;;5057109;28;20279;-39
2023/10/25 05:00:09;;;;;;;14.98;8.80;;;;;;;;;;5055256;28;20117;-39
2023/10/25 05:02:38;;;;;;;14.05;9.10;;;;;;;;;;5065844;28;20095;-41
2023/10/25 05:05:04;;;;;;;19.42;10.00;;;;;;;;;;5059216;28;20506;-38
2023/10/25 05:07:30;;;;;;;13.65;8.57;;;;;;;;;;5061481;28;20571;-39
2023/10/25 05:09:55;;;;;;;16.17;9.07;;;;;;;;;;5056090;28;20034;-39
2023/10/25 05:12:24;;;;;;;14.60;8.57;;;;;;;;;;5059918;28;20032;-39
2023/10/25 05:14:50;;;;;;;15.48;9.48;;;;;;;;;;5053081;28;20795;-39
2023/10/25 05:17:15;;;;;;;17.48;9.02;;;;;;;;;;5065606;28;20502;-39
2023/10/25 05:19:41;;;;;;;17.02;9.55;;;;;;;;;;5059385;28;20109;-38
2023/10/25 05:22:09;;;;;;;15.93;8.50;;;;;;;;;;5065950;28;20435;-38
2023/10/25 05:24:35;;;;;;;13.98;8.43;;;;;;;;;;5063608;28;20463;-39
2023/10/25 05:27:01;;;;;;;17.23;9.52;;;;;;;;;;5059126;28;20121;-39
2023/10/25 05:29:26;;;;;;;18.77;8.65;;;;;;;;;;5064844;28;20037;-38
2023/10/25 05:31:54;;;;;;;20.98;10.10;;;;;;;;;;5057793;28;20390;-42
2023/10/25 05:34:20;;;;;;;18.85;9.63;;;;;;;;;;5063935;28;20726;-38
2023/10/25 05:36:45;;;;;;;15.57;9.30;;;;;;;;;;5062167;28;20029;-39
2023/10/25 05:39:11;;;;;;;14.13;8.70;;;;;;;;;;5061635;28;20036;-38
2023/10/25 05:41:39;;;;;;;16.35;9.80;;;;;;;;;;5060813;28;20041;-39
2023/10/25 05:44:13;;;;;;;15.43;8.43;;;;;;;;;;5062143;28;20029;-38
2023/10/25 05:46:39;;;;;;;7.60;4.53;;;;;;;;;;5067090;28;20035;-38
2023/10/25 05:49:04;;;;;;;13.87;9.03;;;;;;;;;;5064031;28;20029;-38
2023/10/25 05:51:29;;;;;;;18.58;9.57;;;;;;;;;;5060393;28;20287;-37
2023/10/25 05:53:55;;;;;;;16.75;9.60;;;;;;;;;;5061007;28;20383;-38
2023/10/25 05:56:25;;;;;;;16.13;9.45;;;;;;;;;;5065460;28;20497;-38
2023/10/25 05:58:51;;;;;;;18.33;9.20;;;;;;;;;;5063336;28;20036;-38
2023/10/25 06:01:18;;;;;;;18.13;9.25;;;;;;;;;;5070422;28;20033;-37
2023/10/25 06:03:45;;;;;;;16.67;9.90;;;;;;;;;;5070292;28;20604;-37
2023/10/25 06:06:11;;;;;;;16.52;8.77;;;;;;;;;;5068264;28;20535;-37
2023/10/25 06:08:37;;;;;;;18.30;9.63;;;;;;;;;;5060195;28;20070;-37
2023/10/25 06:11:03;;;;;;;18.98;9.23;;;;;;;;;;5065850;28;20027;-39
2023/10/25 06:13:28;;;;;;;18.02;10.30;;;;;;;;;;5065686;28;20382;-39
2023/10/25 06:15:54;;;;;;;14.60;9.40;;;;;;;;;;5061937;28;20037;-39
2023/10/25 06:18:19;;;;;;;24.53;12.27;;;;;;;;;;5064065;28;20070;-39
2023/10/25 06:20:44;;;;;;;21.83;11.05;;;;;;;;;;5065226;28;20287;-39
2023/10/25 06:23:09;;;;;;;19.67;10.57;;;;;;;;;;5059442;28;20017;-39
2023/10/25 06:25:35;;;;;;;15.90;8.40;;;;;;;;;;5059747;28;20040;-38
2023/10/25 06:28:00;;;;;;;13.20;9.37;;;;;;;;;;5065979;28;20326;-39
2023/10/25 06:30:28;;;;;;;14.98;8.82;;;;;;;;;;5065002;28;20291;-38
2023/10/25 06:32:56;;;;;;;13.40;9.02;;;;;;;;;;5061172;28;20411;-39
2023/10/25 06:35:21;;;;;;;15.55;9.23;;;;;;;;;;5061012;28;20020;-39
2023/10/25 06:37:47;;;;;;;13.67;9.10;;;;;;;;;;5063472;28;20028;-39
2023/10/25 06:40:12;;;;;;;13.55;9.25;;;;;;;;;;5061540;28;20271;-39
2023/10/25 06:42:38;;;;;;;15.15;7.88;;;;;;;;;;5056798;28;20032;-38
2023/10/25 06:45:03;;;;;;;13.25;8.25;;;;;;;;;;5056973;28;20028;-38
2023/10/25 06:47:29;;;;;;;15.80;8.80;;;;;;;;;;5060971;28;20047;-38
2023/10/25 06:49:54;;;;;;;17.17;8.85;;;;;;;;;;5053585;28;20467;-39
2023/10/25 06:52:20;;;;;;;13.75;8.60;;;;;;;;;;5065905;28;20017;-40
2023/10/25 06:54:45;;;;;;;14.88;9.32;;;;;;;;;;5054319;28;20020;-38
2023/10/25 06:57:11;;;;;;;16.98;9.80;;;;;;;;;;5060286;28;20035;-38
2023/10/25 06:59:37;;;;;;;18.63;10.18;;;;;;;;;;5054507;28;20074;-38
2023/10/25 07:02:23;;;;;;;12.45;8.77;;;;;;;;;;5069872;28;20116;-39
2023/10/25 07:04:52;;;;;;;10.57;4.95;;;;;;;;;;5061562;28;20029;-39
2023/10/25 07:07:22;;;;;;;16.13;9.30;;;;;;;;;;5066067;28;20012;-39
2023/10/25 07:09:47;;;;;;;14.68;8.98;;;;;;;;;;5064075;28;20028;-38
2023/10/25 07:12:12;;;;;;;17.13;9.65;;;;;;;;;;5054841;28;20102;-39
2023/10/25 07:14:38;;;;;;;16.23;8.67;;;;;;;;;;5063244;28;20025;-39
2023/10/25 07:17:03;;;;;;;11.97;8.07;;;;;;;;;;5057088;28;20285;-38
2023/10/25 07:19:28;;;;;;;15.82;8.25;;;;;;;;;;5068760;28;20324;-38
2023/10/25 07:21:53;;;;;;;13.97;8.10;;;;;;;;;;5067743;28;20071;-39
2023/10/25 07:24:19;;;;;;;14.47;8.90;;;;;;;;;;5061453;28;20756;-38
2023/10/25 07:26:44;;;;;;;13.13;7.70;;;;;;;;;;5057231;28;20313;-39
2023/10/25 07:29:09;;;;;;;16.57;7.87;;;;;;;;;;5053455;28;20283;-39
2023/10/25 07:31:34;;;;;;;14.25;7.57;;;;;;;;;;5062177;28;20339;-39
2023/10/25 07:34:00;;;;;;;13.67;8.57;;;;;;;;;;5058442;28;20024;-39
2023/10/25 07:36:25;;;;;;;14.03;7.80;;;;;;;;;;5065302;28;20606;-38
2023/10/25 07:38:51;;;;;;;13.47;8.73;;;;;;;;;;5064760;28;20299;-38
2023/10/25 07:41:16;;;;;;;23.42;12.70;;;;;;;;;;5065233;28;20271;-38
2023/10/25 07:43:43;;;;;;;15.98;9.52;;;;;;;;;;5068036;28;20041;-38
2023/10/25 07:46:09;;;;;;;13.85;8.00;;;;;;;;;;5068087;28;20108;-38
2023/10/25 07:48:34;;;;;;;13.60;8.13;;;;;;;;;;5067125;28;20129;-38
2023/10/25 07:51:04;;;;;;;14.20;8.20;;;;;;;;;;5057082;28;20107;-38
2023/10/25 07:53:29;;;;;;;16.73;7.53;;;;;;;;;;5061437;28;20279;-38
2023/10/25 07:55:54;;;;;;;12.05;8.57;;;;;;;;;;5063443;28;20411;-38
2023/10/25 07:58:22;;;;;;;12.90;7.87;;;;;;;;;;5061551;28;20025;-38
2023/10/25 08:00:47;;;;;;;17.05;8.35;;;;;;;;;;5061928;28;20263;-38
2023/10/25 08:03:15;;;;;;;13.90;7.60;;;;;;;;;;5064034;28;20081;-39
2023/10/25 08:05:40;;;;;;;16.88;8.77;;;;;;;;;;5065135;28;20399;-38
2023/10/25 08:08:05;;;;;;;14.50;8.57;;;;;;;;;;5061485;28;20060;-38
2023/10/25 08:10:31;;;;;;;12.70;8.10;;;;;;;;;;5056079;28;20103;-38
2023/10/25 08:12:56;;;;;;;14.17;7.50;;;;;;;;;;5060149;28;20024;-39
2023/10/25 08:15:21;;;;;;;16.23;7.57;;;;;;;;;;5059490;28;21238;-39
2023/10/25 08:17:46;;;;;;;12.87;7.67;;;;;;;;;;5066024;28;20272;-39
2023/10/25 08:20:12;;;;;;;13.33;7.40;;;;;;;;;;5062223;28;20870;-38
2023/10/25 08:22:37;;;;;;;16.70;8.43;;;;;;;;;;5063658;28;20269;-39
2023/10/25 08:25:02;;;;;;;15.20;8.40;;;;;;;;;;5062090;28;20025;-38
2023/10/25 08:27:28;;;;;;;15.18;8.48;;;;;;;;;;5065653;28;20277;-37
2023/10/25 08:29:53;;;;;;;15.88;8.57;;;;;;;;;;5054381;28;20571;-39
2023/10/25 08:32:18;;;;;;;15.93;8.23;;;;;;;;;;5059232;28;20021;-39
2023/10/25 08:34:45;;;;;;;15.95;8.45;;;;;;;;;;5057797;28;20086;-37
2023/10/25 08:37:10;;;;;;;19.25;10.02;;;;;;;;;;5063476;28;20031;-40
2023/10/25 08:39:36;;;;;;;14.70;7.43;;;;;;;;;;5054025;28;20396;-38
2023/10/25 08:42:01;;;;;;;16.83;9.02;;;;;;;;;;5064377;28;20098;-37
2023/10/25 08:44:28;;;;;;;14.68;8.18;;;;;;;;;;5061547;28;20204;-36
2023/10/25 08:46:53;;;;;;;14.90;8.60;;;;;;;;;;5063919;28;20021;-37
2023/10/25 08:49:18;;;;;;;16.08;9.15;;;;;;;;;;5064755;28;20027;-37
2023/10/25 08:51:45;;;;;;;17.00;9.40;;;;;;;;;;5066389;28;20112;-38
2023/10/25 08:54:10;;;;;;;16.02;8.65;;;;;;;;;;5063116;28;20271;-42
2023/10/25 08:56:35;;;;;;;15.48;9.38;;;;;;;;;;5064509;28;20036;-37
2023/10/25 08:59:01;;;;;;;16.52;8.63;;;;;;;;;;5051520;28;20025;-37
2023/10/25 09:01:27;;;;;;;14.85;8.82;;;;;;;;;;5061742;28;20032;-37
2023/10/25 09:03:53;;;;;;;16.25;8.18;;;;;;;;;;5057330;28;20100;-41
2023/10/25 09:06:25;;;;;;;15.53;8.03;;;;;;;;;;5063551;28;20455;-37
2023/10/25 09:08:50;;;;;;;;;;;;;;;;;;5057864;28;21185;-38
2023/10/25 09:11:15;;;;;;;16.85;9.38;;;;;;;;;;5054271;28;20291;-39
2023/10/25 09:13:41;;;;;;;14.83;8.67;;;;;;;;;;5061962;28;20447;-39
2023/10/25 09:16:10;;;;;;;13.65;8.40;;;;;;;;;;5060263;28;20288;-37
2023/10/25 09:18:35;;;;;;;14.02;7.82;;;;;;;;;;5061038;28;20020;-43
2023/10/25 09:21:01;;;;;;;21.73;10.27;;;;;;;;;;5059828;28;20086;-37
2023/10/25 09:23:28;;;;;;;14.52;8.30;;;;;;;;;;5060437;28;20020;-37
2023/10/25 09:25:53;;;;;;;12.63;7.35;;;;;;;;;;5065812;28;20434;-38
2023/10/25 09:28:27;;;;;;;13.55;7.80;;;;;;;;;;5054151;28;20636;-38
2023/10/25 09:30:52;;;;;;;14.40;8.07;;;;;;;;;;5059360;28;20043;-38
2023/10/25 09:33:19;;;;;;;16.45;8.20;;;;;;;;;;5061192;28;20056;-38
2023/10/25 09:35:44;;;;;;;16.93;7.93;;;;;;;;;;5061266;28;20055;-40
2023/10/25 09:38:09;;;;;;;18.63;8.70;;;;;;;;;;5063160;28;20291;-39
2023/10/25 09:40:38;;;;;;;15.03;8.40;;;;;;;;;;5062102;28;20029;-40
2023/10/25 09:43:06;;;;;;;11.48;7.13;;;;;;;;;;5060600;28;20270;-38
2023/10/25 09:45:31;;;;;;;14.23;8.18;;;;;;;;;;5056881;28;20455;-38
2023/10/25 09:48:00;;;;;;;11.63;7.85;;;;;;;;;;5059126;28;20013;-38
2023/10/25 09:50:31;;;;;;;16.13;7.65;;;;;;;;;;5060488;28;20028;-38
2023/10/25 09:53:02;;;;;;;16.17;7.72;;;;;;;;;;5055273;28;20025;-38
2023/10/25 09:55:27;;;;;;;12.68;7.85;;;;;;;;;;5056157;28;20021;-38
2023/10/25 09:57:53;;;;;;;11.10;7.20;;;;;;;;;;5060493;28;20021;-41
2023/10/25 10:00:19;;;;;;;13.70;7.55;;;;;;;;;;5054833;28;20133;-41
2023/10/25 10:02:50;;;;;;;11.80;7.05;;;;;;;;;;5060287;28;20483;-40
2023/10/25 10:05:24;;;;;;;10.02;6.35;;;;;;;;;;5061732;28;20031;-39
2023/10/25 10:07:52;;;;;;;10.10;6.20;;;;;;;;;;5059326;28;20033;-39
2023/10/25 10:10:20;;;;;;;11.30;7.50;;;;;;;;;;5058772;28;20039;-38
2023/10/25 10:12:46;;;;;;;10.15;6.10;;;;;;;;;;5065168;28;20053;-38
2023/10/25 10:15:14;;;;;;;10.18;6.32;;;;;;;;;;5058703;28;20466;-39
2023/10/25 10:17:46;;;;;;;11.45;6.45;;;;;;;;;;5056578;28;20759;-38
2023/10/25 10:20:25;;;;;;;13.15;6.93;;;;;;;;;;5063708;28;20434;-37
2023/10/25 10:23:01;;;;;;;12.10;7.00;;;;;;;;;;5061672;28;20521;-37
2023/10/25 10:25:50;;;;;;;17.05;6.90;;;;;;;;;;5053467;28;20025;-40
2023/10/25 10:28:16;;;;;;;13.43;6.80;;;;;;;;;;5060004;28;20020;-37
2023/10/25 10:30:41;;;;;;;14.90;7.50;;;;;;;;;;5058315;28;20029;-38
2023/10/25 10:33:08;;;;;;;13.23;7.72;;;;;;;;;;5059268;28;20487;-38
2023/10/25 10:35:33;;;;;;;12.63;7.60;;;;;;;;;;5060682;28;20023;-38
2023/10/25 10:37:59;;;;;;;13.40;7.53;;;;;;;;;;5063844;28;20017;-41
2023/10/25 10:40:25;;;;;;;6.00;4.13;;;;;;;;;;5063407;28;20032;-40
2023/10/25 10:42:50;;;;;;;11.13;6.57;;;;;;;;;;5068220;28;20107;-37
2023/10/25 10:45:17;;;;;;;12.93;7.37;;;;;;;;;;5062522;28;20028;-37
2023/10/25 10:48:13;;;;;;;11.05;7.07;;;;;;;;;;5063669;28;20824;-38
2023/10/25 10:50:40;;;;;;;10.98;6.65;;;;;;;;;;5060600;28;20121;-41
2023/10/25 10:53:05;;;;;;;11.43;7.20;;;;;;;;;;5063860;28;20102;-37
2023/10/25 10:55:31;;;;;;;11.63;7.45;;;;;;;;;;5065844;28;20414;-38
2023/10/25 10:57:56;;;;;;;9.70;6.97;;;;;;;;;;5064054;28;20016;-38
2023/10/25 11:00:22;;;;;;;11.73;6.82;;;;;;;;;;5059215;28;21554;-38
2023/10/25 11:02:48;;;;;;;12.25;7.28;;;;;;;;;;5061907;28;20222;-38
2023/10/25 11:05:15;;;;;;;11.82;7.53;;;;;;;;;;5062664;28;20055;-41
2023/10/25 11:07:41;;;;;;;12.70;7.22;;;;;;;;;;5064820;28;20020;-38
2023/10/25 11:10:06;;;;;;;13.95;7.43;;;;;;;;;;5060528;28;20066;-38
2023/10/25 11:12:31;;;;;;;13.32;8.25;;;;;;;;;;5068314;28;20028;-39
2023/10/25 11:15:00;;;;;;;9.60;6.55;;;;;;;;;;5067678;28;20577;-38
2023/10/25 11:17:25;;;;;;;11.80;6.47;;;;;;;;;;5056143;28;20017;-37
2023/10/25 11:19:51;;;;;;;9.10;6.53;;;;;;;;;;5064396;28;20494;-38
2023/10/25 11:22:16;;;;;;;11.53;6.80;;;;;;;;;;5066912;28;20267;-38
2023/10/25 11:24:41;;;;;;;9.77;6.95;;;;;;;;;;5065694;28;20271;-37
2023/10/25 11:27:07;;;;;;;14.10;7.30;;;;;;;;;;5063483;28;20522;-38
2023/10/25 11:29:33;;;;;;;10.23;6.68;;;;;;;;;;5067798;28;20040;-38
2023/10/25 11:32:01;;;;;;;10.65;6.18;;;;;;;;;;5067660;28;20028;-38
2023/10/25 11:34:30;;;;;;;11.32;6.72;;;;;;;;;;5063051;28;20020;-38
2023/10/25 11:36:55;;;;;;;11.88;6.75;;;;;;;;;;5059301;28;20017;-38
2023/10/25 11:39:21;;;;;;;9.32;4.95;;;;;;;;;;5061783;28;20031;-38
2023/10/25 11:41:46;;;;;;;10.67;7.30;;;;;;;;;;5066852;28;20112;-41
2023/10/25 11:44:11;;;;;;;16.03;8.27;;;;;;;;;;5066104;28;20304;-40
2023/10/25 11:46:37;;;;;;;14.27;8.20;;;;;;;;;;5065516;28;20677;-38
2023/10/25 11:49:03;;;;;;;11.07;7.07;;;;;;;;;;5066325;28;20986;-37
2023/10/25 11:51:28;;;;;;;9.32;6.55;;;;;;;;;;5067740;28;20028;-38
2023/10/25 11:53:54;;;;;;;9.43;6.78;;;;;;;;;;5066499;28;20521;-38
2023/10/25 11:56:21;;;;;;;10.07;6.43;;;;;;;;;;5058395;28;20035;-39
2023/10/25 11:58:47;;;;;;;11.68;7.20;;;;;;;;;;5060216;28;20637;-37
2023/10/25 12:01:12;;;;;;;9.98;6.72;;;;;;;;;;5063823;28;20028;-39
2023/10/25 12:03:38;;;;;;;11.07;6.60;;;;;;;;;;5066730;28;20482;-39
2023/10/25 12:06:04;;;;;;;9.85;6.47;;;;;;;;;;5057283;28;20099;-36
2023/10/25 12:08:29;;;;;;;9.75;6.60;;;;;;;;;;5070646;28;20051;-36
2023/10/25 12:10:55;;;;;;;10.77;6.60;;;;;;;;;;5063569;28;20458;-39
2023/10/25 12:13:20;;;;;;;10.47;6.67;;;;;;;;;;5065662;28;20023;-37
2023/10/25 12:15:45;;;;;;;21.87;8.47;;;;;;;;;;5060839;28;20333;-38
2023/10/25 12:18:10;;;;;;;8.83;5.80;;;;;;;;;;5058558;28;20274;-42
2023/10/25 12:20:36;;;;;;;9.23;5.33;;;;;;;;;;5061727;28;20279;-37
2023/10/25 12:23:04;;;;;;;11.30;5.93;;;;;;;;;;5067942;28;20347;-42
2023/10/25 12:25:30;;;;;;;11.10;7.43;;;;;;;;;;5064850;28;20258;-38
2023/10/25 12:27:55;;;;;;;8.27;5.25;;;;;;;;;;5062787;28;20028;-38
2023/10/25 12:30:20;;;;;;;11.88;7.40;;;;;;;;;;5064421;28;20119;-38
2023/10/25 12:32:46;;;;;;;11.88;7.00;;;;;;;;;;5061458;28;20032;-38
2023/10/25 12:35:11;;;;;;;10.83;6.37;;;;;;;;;;5055653;28;20519;-38
2023/10/25 12:37:37;;;;;;;12.17;5.60;;;;;;;;;;5055460;28;20047;-38
2023/10/25 12:40:04;;;;;;;10.27;6.05;;;;;;;;;;5064944;28;20275;-38
2023/10/25 12:42:30;;;;;;;10.10;6.30;;;;;;;;;;5065696;28;20032;-36
2023/10/25 12:44:55;;;;;;;8.23;5.30;;;;;;;;;;5064875;28;20391;-37
2023/10/25 12:47:22;;;;;;;10.38;6.25;;;;;;;;;;5064627;28;20274;-38
2023/10/25 12:49:49;;;;;;;11.45;6.40;;;;;;;;;;5064239;28;20067;-37
2023/10/25 12:52:14;;;;;;;8.50;5.15;;;;;;;;;;5065185;28;20096;-37
2023/10/25 12:54:39;;;;;;;9.85;5.70;;;;;;;;;;5057748;28;20521;-38
2023/10/25 12:57:04;;;;;;;7.80;4.70;;;;;;;;;;5063840;28;20020;-37
2023/10/25 12:59:30;;;;;;;10.97;4.67;;;;;;;;;;5064132;28;20032;-38
2023/10/25 13:01:55;;;;;;;7.77;4.80;;;;;;;;;;5063575;28;20512;-38
2023/10/25 13:04:20;;;;;;;7.53;5.13;;;;;;;;;;5066125;28;20285;-40
2023/10/25 13:06:47;;;;;;;9.77;4.80;;;;;;;;;;5068578;28;20275;-38
2023/10/25 13:09:12;;;;;;;10.63;5.65;;;;;;;;;;5064772;28;20046;-37
2023/10/25 13:11:37;;;;;;;9.73;5.27;;;;;;;;;;5065902;28;20107;-39
2023/10/25 13:14:03;;;;;;;8.03;5.53;;;;;;;;;;5066229;28;20262;-38
2023/10/25 13:16:29;;;;;;;9.60;5.35;;;;;;;;;;5058215;28;20281;-40
2023/10/25 13:18:54;;;;;;;8.43;5.60;;;;;;;;;;5057101;28;20017;-41
2023/10/25 13:21:19;;;;;;;8.55;4.93;;;;;;;;;;5077919;28;20494;-37
2023/10/25 13:23:45;;;;;;;7.22;5.25;;;;;;;;;;5063022;28;20033;-39
2023/10/25 13:26:11;;;;;;;10.57;5.65;;;;;;;;;;5060203;28;20024;-38
2023/10/25 13:28:36;;;;;;;8.65;5.32;;;;;;;;;;5063144;28;20047;-38
2023/10/25 13:31:01;;;;;;;10.37;5.23;;;;;;;;;;5063130;28;20037;-38
2023/10/25 13:33:27;;;;;;;7.37;5.17;;;;;;;;;;5062351;28;20262;-38
2023/10/25 13:35:52;;;;;;;9.65;5.05;;;;;;;;;;5064744;28;20328;-38
2023/10/25 13:38:17;;;;;;;9.03;4.80;;;;;;;;;;5064438;28;20111;-38
2023/10/25 13:40:45;;;;;;;8.30;5.43;;;;;;;;;;5056841;28;20271;-38
2023/10/25 13:43:12;;;;;;;8.65;4.80;;;;;;;;;;5061710;28;20043;-38
2023/10/25 13:45:37;;;;;;;8.80;5.38;;;;;;;;;;5062168;28;20040;-38
2023/10/25 13:48:03;;;;;;;6.90;4.75;;;;;;;;;;5066503;28;20036;-38
2023/10/25 13:50:28;;;;;;;8.15;4.68;;;;;;;;;;5064677;28;20032;-38
2023/10/25 13:52:53;;;;;;;7.90;4.50;;;;;;;;;;5065527;28;20111;-38
2023/10/25 13:55:20;;;;;;;6.30;3.83;;;;;;;;;;5064973;28;20024;-38
2023/10/25 13:57:45;;;;;;;9.48;6.00;;;;;;;;;;5063748;28;20287;-38
2023/10/25 14:00:11;;;;;;;8.68;4.82;;;;;;;;;;5057123;28;20021;-38
2023/10/25 14:02:36;;;;;;;6.43;4.55;;;;;;;;;;5063709;28;20024;-38
2023/10/25 14:05:02;;;;;;;7.70;4.93;;;;;;;;;;5064966;28;20119;-38
2023/10/25 14:07:28;;;;;;;8.93;4.50;;;;;;;;;;5066031;28;20263;-38
2023/10/25 14:09:53;;;;;;;5.95;3.90;;;;;;;;;;5068289;28;20031;-38
2023/10/25 14:12:18;;;;;;;6.37;4.27;;;;;;;;;;5067480;28;20025;-38
2023/10/25 14:14:43;;;;;;;7.00;4.67;;;;;;;;;;5063363;28;20920;-38
2023/10/25 14:17:08;;;;;;;9.07;4.93;;;;;;;;;;5064257;28;20270;-38
2023/10/25 14:19:34;;;;;;;9.17;5.03;;;;;;;;;;5061613;28;20029;-38
2023/10/25 14:21:59;;;;;;;7.37;5.07;;;;;;;;;;5066535;28;20058;-38
2023/10/25 14:24:24;;;;;;;10.00;4.73;;;;;;;;;;5069938;28;20278;-38